Time;durP1;ratioP1;P1;durP2;ratioP2;P2;SDS_P1;SDS_P2;PMS_P1;PMS_P2;Temp;Humidity;BMP_temperature;BMP_pressure;BME280_temperature;BME280_humidity;BME280_pressure;Samples;Min_cycle;Max_cycle;Signal;HPM_P1;HPM_P2
2023/10/08 00:01:35;;;;;;;6.00;3.17;;;15.60;99.90;;;;;;5012819;28;20234;-81
2023/10/08 00:04:04;;;;;;;5.60;3.23;;;15.60;99.90;;;;;;5013199;28;20553;-83
2023/10/08 00:06:30;;;;;;;4.20;3.23;;;15.50;99.90;;;;;;5014547;28;20175;-80
2023/10/08 00:08:59;;;;;;;5.47;3.17;;;15.50;99.90;;;;;;5013399;28;20264;-81
2023/10/08 00:11:26;;;;;;;4.23;3.10;;;15.40;99.90;;;;;;5014116;28;20171;-81
2023/10/08 00:13:56;;;;;;;5.63;3.00;;;15.50;99.90;;;;;;5014309;28;20674;-81
2023/10/08 00:16:21;;;;;;;5.63;3.20;;;15.40;99.90;;;;;;5013203;28;20163;-81
2023/10/08 00:18:50;;;;;;;6.87;3.30;;;15.40;99.90;;;;;;5014769;28;20257;-81
2023/10/08 00:21:19;;;;;;;5.07;3.57;;;15.40;99.90;;;;;;5013996;28;20183;-80
2023/10/08 00:24:02;;;;;;;7.37;3.67;;;15.40;99.90;;;;;;5013409;28;20183;-81
2023/10/08 00:26:31;;;;;;;6.23;3.40;;;15.40;99.90;;;;;;5014189;28;20562;-81
2023/10/08 00:29:15;;;;;;;5.90;3.20;;;15.30;99.90;;;;;;5013911;28;20198;-82
2023/10/08 00:31:44;;;;;;;4.17;2.60;;;15.40;99.90;;;;;;5012633;28;20198;-80
2023/10/08 00:34:13;;;;;;;5.40;2.90;;;15.30;99.90;;;;;;5013105;28;20682;-80
2023/10/08 00:36:44;;;;;;;5.13;3.27;;;15.30;99.90;;;;;;5012953;28;20175;-80
2023/10/08 00:39:13;;;;;;;5.17;3.33;;;15.40;99.90;;;;;;5014189;28;20186;-81
2023/10/08 00:41:43;;;;;;;5.47;3.60;;;15.40;99.90;;;;;;5012364;28;20203;-81
2023/10/08 00:44:22;;;;;;;5.67;2.73;;;15.40;99.90;;;;;;5012706;28;20186;-79
2023/10/08 00:46:49;;;;;;;4.00;2.90;;;15.40;99.90;;;;;;5012886;28;20175;-81
2023/10/08 00:52:00;;;;;;;5.93;3.20;;;15.40;99.90;;;;;;5013808;28;20262;-82
2023/10/08 00:54:28;;;;;;;4.77;3.17;;;15.40;99.90;;;;;;5012521;28;20171;-82
2023/10/08 00:56:57;;;;;;;3.93;2.70;;;15.40;99.90;;;;;;5014160;28;20178;-81
2023/10/08 00:59:25;;;;;;;5.43;3.27;;;15.30;99.90;;;;;;5013624;28;20167;-80
2023/10/08 01:01:52;;;;;;;4.23;3.27;;;15.30;99.90;;;;;;5011618;28;20222;-80
2023/10/08 01:04:22;;;;;;;5.73;3.30;;;15.30;99.90;;;;;;5012435;28;20183;-80
2023/10/08 01:06:54;;;;;;;6.80;3.40;;;15.30;99.90;;;;;;5012737;28;20186;-83
2023/10/08 01:09:26;;;;;;;6.37;3.37;;;15.30;99.90;;;;;;5012406;28;20203;-81
2023/10/08 01:15:04;;;;;;;5.50;3.83;;;15.20;99.90;;;;;;4982870;28;20182;-80
2023/10/08 01:17:31;;;;;;;5.57;3.13;;;15.20;99.90;;;;;;5013389;28;20167;-80
2023/10/08 01:20:19;;;;;;;5.33;3.53;;;15.10;99.90;;;;;;5011443;28;20198;-80
2023/10/08 01:22:45;;;;;;;5.77;3.40;;;15.10;99.90;;;;;;5013022;28;20236;-80
2023/10/08 01:25:11;;;;;;;6.20;3.10;;;15.10;99.90;;;;;;5013126;28;20587;-80
2023/10/08 01:27:40;;;;;;;6.17;3.40;;;15.10;99.90;;;;;;5012046;28;20553;-83
2023/10/08 01:30:15;;;;;;;7.90;3.60;;;15.10;99.90;;;;;;5013076;28;20377;-81
2023/10/08 01:32:40;;;;;;;4.97;3.50;;;15.10;99.90;;;;;;5012713;28;20195;-80
2023/10/08 01:35:21;;;;;;;6.07;3.50;;;15.00;99.90;;;;;;5011924;28;20667;-81
2023/10/08 01:37:48;;;;;;;4.93;3.53;;;15.00;99.90;;;;;;5011997;28;20182;-82
2023/10/08 01:40:13;;;;;;;5.00;3.23;;;15.00;99.90;;;;;;5028667;28;20174;-80
2023/10/08 01:42:39;;;;;;;4.33;2.97;;;15.00;99.90;;;;;;5011406;28;20245;-83
2023/10/08 01:45:07;;;;;;;6.53;3.53;;;15.00;99.90;;;;;;5013029;28;20176;-80
2023/10/08 01:47:33;;;;;;;5.23;3.30;;;15.00;99.90;;;;;;5013048;28;20183;-81
2023/10/08 01:50:05;;;;;;;4.97;3.33;;;14.90;99.90;;;;;;5013062;28;20201;-80
2023/10/08 01:52:31;;;;;;;7.13;3.43;;;14.90;99.90;;;;;;5011274;28;20241;-80
2023/10/08 01:54:57;;;;;;;5.03;3.27;;;14.90;99.90;;;;;;5013391;28;20196;-80
2023/10/08 01:57:23;;;;;;;6.23;3.57;;;14.80;99.90;;;;;;5011749;28;20179;-80
2023/10/08 01:59:48;;;;;;;6.90;3.60;;;14.90;99.90;;;;;;5012040;28;20228;-80
2023/10/08 02:02:17;;;;;;;4.97;3.50;;;14.90;99.90;;;;;;5012572;28;20569;-81
2023/10/08 02:04:43;;;;;;;5.60;3.30;;;14.80;99.90;;;;;;5012122;28;20210;-80
2023/10/08 02:07:12;;;;;;;4.40;3.40;;;14.80;99.90;;;;;;5013024;28;20182;-81
2023/10/08 02:09:38;;;;;;;5.90;3.43;;;14.80;99.90;;;;;;5012745;28;20206;-80
2023/10/08 02:12:04;;;;;;;6.73;3.63;;;14.80;99.90;;;;;;5011112;28;20191;-82
2023/10/08 02:14:35;;;;;;;6.20;3.57;;;14.80;99.90;;;;;;5012664;28;20198;-81
2023/10/08 02:17:06;;;;;;;3.93;2.80;;;14.90;99.90;;;;;;5011708;28;20178;-81
2023/10/08 02:19:32;;;;;;;6.97;3.20;;;14.90;99.90;;;;;;5011926;28;20171;-81
2023/10/08 02:21:58;;;;;;;6.17;3.70;;;14.80;99.90;;;;;;5012231;28;20291;-81
2023/10/08 02:24:25;;;;;;;7.10;3.40;;;14.80;99.90;;;;;;5013089;28;20270;-81
2023/10/08 02:26:54;;;;;;;5.73;3.40;;;14.80;99.90;;;;;;5012563;28;20547;-81
2023/10/08 02:29:28;;;;;;;6.33;3.10;;;14.80;99.90;;;;;;5011311;28;20206;-81
2023/10/08 02:31:54;;;;;;;5.40;3.20;;;14.80;99.90;;;;;;5014067;28;20237;-81
2023/10/08 02:34:20;;;;;;;7.60;3.10;;;14.70;99.90;;;;;;5015319;28;20253;-81
2023/10/08 02:36:49;;;;;;;5.07;3.43;;;14.70;99.90;;;;;;5016456;28;20175;-80
2023/10/08 02:39:20;;;;;;;6.07;3.60;;;14.70;99.90;;;;;;5015329;28;20190;-81
2023/10/08 02:41:47;;;;;;;4.97;3.43;;;14.70;99.90;;;;;;5015630;28;20229;-81
2023/10/08 02:44:14;;;;;;;6.77;3.50;;;14.70;99.90;;;;;;5015978;28;20533;-82
2023/10/08 02:46:49;;;;;;;6.50;3.47;;;14.70;99.90;;;;;;5014951;28;20186;-81
2023/10/08 02:49:20;;;;;;;4.93;2.90;;;14.70;99.90;;;;;;5015897;28;20214;-81
2023/10/08 02:51:50;;;;;;;5.97;3.57;;;14.70;99.90;;;;;;5014534;28;20642;-81
2023/10/08 02:54:31;;;;;;;5.03;3.40;;;14.70;99.90;;;;;;5014750;28;20199;-81
2023/10/08 02:56:58;;;;;;;5.50;3.30;;;14.70;99.90;;;;;;5014876;28;20185;-81
2023/10/08 02:59:28;;;;;;;6.77;3.73;;;14.70;99.90;;;;;;5015851;28;20183;-81
2023/10/08 03:01:56;;;;;;;6.47;3.13;;;14.70;99.90;;;;;;5013845;28;20199;-81
2023/10/08 03:04:23;;;;;;;6.33;3.40;;;14.80;99.90;;;;;;5015926;28;20199;-81
2023/10/08 03:06:52;;;;;;;6.10;3.30;;;14.70;99.90;;;;;;5015966;28;20187;-80
2023/10/08 03:09:32;;;;;;;7.03;3.23;;;14.80;99.90;;;;;;5014253;28;20227;-81
2023/10/08 03:11:58;;;;;;;4.90;3.37;;;14.80;99.90;;;;;;5014047;28;20290;-80
2023/10/08 03:14:26;;;;;;;5.73;3.40;;;14.80;99.90;;;;;;5015688;28;20640;-80
2023/10/08 03:16:53;;;;;;;5.93;3.20;;;14.80;99.90;;;;;;5015875;28;20187;-81
2023/10/08 03:19:21;;;;;;;4.77;3.10;;;14.80;99.90;;;;;;5015462;28;20175;-81
2023/10/08 03:21:57;;;;;;;5.50;3.50;;;14.80;99.90;;;;;;5015009;28;20210;-81
2023/10/08 03:24:30;;;;;;;;;;;;;;;;;;;;;
2023/10/08 03:27:06;;;;;;;4.37;3.17;;;14.80;99.90;;;;;;5015857;28;20209;-81
2023/10/08 03:29:41;;;;;;;5.53;3.03;;;14.70;99.90;;;;;;5015024;28;20687;-80
2023/10/08 03:32:18;;;;;;;5.00;3.50;;;14.70;99.90;;;;;;5013756;28;20237;-80
2023/10/08 03:34:46;;;;;;;6.10;2.87;;;14.70;99.90;;;;;;5015327;28;20175;-80
2023/10/08 03:37:19;;;;;;;4.70;3.00;;;14.70;99.90;;;;;;5015106;28;20167;-81
2023/10/08 03:39:52;;;;;;;5.83;3.20;;;14.70;99.90;;;;;;5015123;28;20175;-81
2023/10/08 03:42:25;;;;;;;4.47;3.17;;;14.60;99.90;;;;;;5013608;28;20206;-81
2023/10/08 03:44:52;;;;;;;6.73;3.60;;;14.60;99.90;;;;;;5015147;28;20187;-81
2023/10/08 03:47:26;;;;;;;4.40;3.20;;;14.70;99.90;;;;;;5013763;28;20241;-81
2023/10/08 03:49:53;;;;;;;6.23;3.37;;;14.60;99.90;;;;;;5013869;28;20603;-80
2023/10/08 03:52:23;;;;;;;5.20;3.27;;;14.60;99.90;;;;;;5013138;28;20239;-81
2023/10/08 03:54:59;;;;;;;6.40;3.80;;;14.60;99.90;;;;;;5014980;28;20163;-80
2023/10/08 03:57:25;;;;;;;5.07;3.10;;;14.70;99.90;;;;;;5013866;28;20174;-83
2023/10/08 03:59:55;;;;;;;4.90;3.60;;;14.70;99.90;;;;;;5013662;28;20175;-81
2023/10/08 04:02:39;;;;;;;5.67;3.30;;;14.70;99.90;;;;;;5014527;28;20579;-80
2023/10/08 04:05:18;;;;;;;5.73;3.53;;;14.80;99.90;;;;;;5015009;28;20167;-80
2023/10/08 04:08:34;;;;;;;5.87;3.50;;;14.80;99.90;;;;;;5014488;28;20171;-81
2023/10/08 04:13:09;;;;;;;6.70;3.50;;;14.80;99.90;;;;;;5014315;28;20321;-81
2023/10/08 04:15:42;;;;;;;4.93;3.37;;;14.80;99.90;;;;;;5013380;28;20182;-81
2023/10/08 04:18:08;;;;;;;7.70;3.43;;;14.80;99.90;;;;;;5014430;28;20182;-80
2023/10/08 04:20:38;;;;;;;6.73;3.63;;;14.80;99.90;;;;;;5013454;28;20182;-80
2023/10/08 04:23:21;;;;;;;7.23;3.50;;;14.70;99.90;;;;;;5014049;28;20282;-82
2023/10/08 04:25:51;;;;;;;5.93;3.93;;;14.70;99.90;;;;;;5013187;28;20256;-81
2023/10/08 04:28:20;;;;;;;7.17;3.67;;;14.70;99.90;;;;;;5012876;28;20265;-81
2023/10/08 04:30:47;;;;;;;6.90;3.57;;;14.70;99.90;;;;;;5012781;28;20171;-78
2023/10/08 04:33:14;;;;;;;7.10;3.70;;;14.60;99.90;;;;;;5014273;28;20198;-81
2023/10/08 04:35:48;;;;;;;5.43;3.50;;;14.60;99.90;;;;;;5013203;28;20229;-83
2023/10/08 04:38:17;;;;;;;6.93;3.40;;;14.60;99.90;;;;;;5014190;28;20221;-80
2023/10/08 04:40:48;;;;;;;6.37;3.70;;;14.60;99.90;;;;;;5012754;28;20171;-81
2023/10/08 04:43:22;;;;;;;5.37;3.33;;;14.60;99.90;;;;;;5014094;28;20195;-80
2023/10/08 04:45:49;;;;;;;5.90;3.57;;;14.60;99.90;;;;;;5013939;28;20182;-80
2023/10/08 04:48:20;;;;;;;7.90;3.53;;;14.50;99.90;;;;;;5014233;28;20206;-81
2023/10/08 04:50:58;;;;;;;5.60;3.53;;;14.50;99.90;;;;;;5013270;28;20681;-79
2023/10/08 04:53:37;;;;;;;5.93;3.50;;;14.50;99.90;;;;;;5013015;28;20206;-82
2023/10/08 04:56:13;;;;;;;5.43;3.20;;;14.60;99.90;;;;;;5012922;28;20186;-83
2023/10/08 04:58:46;;;;;;;5.50;3.43;;;14.60;99.90;;;;;;5013283;28;20186;-81
2023/10/08 05:01:20;;;;;;;6.40;3.63;;;14.60;99.90;;;;;;5011525;28;20175;-81
2023/10/08 05:17:09;;;;;;;5.17;3.50;;;14.60;99.90;;;;;;5013574;28;20195;-82
2023/10/08 05:22:18;;;;;;;6.80;3.80;;;14.60;99.90;;;;;;5012943;28;20202;-81
2023/10/08 05:33:12;;;;;;;5.90;3.67;;;14.60;99.90;;;;;;5012211;28;20236;-82
2023/10/08 05:51:56;;;;;;;6.33;4.17;;;14.60;99.90;;;;;;5011603;28;20197;-83
2023/10/08 05:59:52;;;;;;;6.27;3.60;;;14.60;99.90;;;;;;5012703;28;20245;-82
2023/10/08 06:05:09;;;;;;;7.33;3.63;;;14.60;99.90;;;;;;5012739;28;20178;-82
2023/10/08 06:07:48;;;;;;;4.30;3.37;;;14.60;99.90;;;;;;5015622;28;20186;-81
2023/10/08 06:10:42;;;;;;;5.80;3.70;;;14.60;99.90;;;;;;5016651;28;20175;-81
2023/10/08 06:13:43;;;;;;;5.53;3.73;;;14.60;99.90;;;;;;5015835;28;20206;-82
2023/10/08 06:16:08;;;;;;;6.30;3.70;;;14.60;99.90;;;;;;5016046;28;20190;-81
2023/10/08 06:18:34;;;;;;;9.53;4.17;;;14.70;99.90;;;;;;5016530;28;20179;-82
2023/10/08 06:21:08;;;;;;;6.80;4.07;;;14.70;99.90;;;;;;5014301;28;20183;-80
2023/10/08 06:23:39;;;;;;;5.93;4.00;;;14.70;99.90;;;;;;5016753;28;20198;-81
2023/10/08 06:26:13;;;;;;;5.97;3.87;;;14.70;99.90;;;;;;5015455;28;20183;-81
2023/10/08 06:28:41;;;;;;;7.03;4.10;;;14.70;99.90;;;;;;5016617;28;20201;-82
2023/10/08 06:31:23;;;;;;;7.50;4.20;;;14.70;99.90;;;;;;5031394;28;20182;-81
2023/10/08 06:33:48;;;;;;;6.80;4.20;;;14.80;99.90;;;;;;5017027;28;20187;-81
2023/10/08 06:36:15;;;;;;;6.70;3.60;;;14.80;99.90;;;;;;5016830;28;20561;-80
2023/10/08 06:38:42;;;;;;;6.33;3.83;;;14.70;99.90;;;;;;5016597;28;20175;-81
2023/10/08 06:43:39;;;;;;;6.23;3.60;;;14.80;99.90;;;;;;5016267;28;20174;-81
2023/10/08 06:46:07;;;;;;;6.77;3.53;;;14.80;99.90;;;;;;5016046;28;20174;-81
2023/10/08 06:48:34;;;;;;;5.57;3.70;;;14.80;99.90;;;;;;5015143;28;20203;-81
2023/10/08 06:51:13;;;;;;;5.70;3.60;;;14.80;99.90;;;;;;5015754;28;20576;-82
2023/10/08 06:53:48;;;;;;;7.57;4.17;;;14.80;99.90;;;;;;5016424;28;20556;-81
2023/10/08 06:56:19;;;;;;;7.77;4.13;;;14.90;99.90;;;;;;5014823;28;20189;-82
2023/10/08 06:58:48;;;;;;;6.60;3.70;;;14.90;99.90;;;;;;5015969;28;20179;-82
2023/10/08 07:01:20;;;;;;;5.83;3.87;;;14.90;99.90;;;;;;5014292;28;20265;-81
2023/10/08 07:03:49;;;;;;;6.70;4.10;;;15.00;99.90;;;;;;5015996;28;20175;-83
2023/10/08 07:06:25;;;;;;;4.70;3.33;;;15.00;99.90;;;;;;5014143;28;20179;-82
2023/10/08 07:08:55;;;;;;;9.60;3.77;;;15.00;99.90;;;;;;5015230;28;20202;-82
2023/10/08 07:11:21;;;;;;;5.00;3.70;;;15.00;99.90;;;;;;5014775;28;20171;-84
2023/10/08 07:13:47;;;;;;;5.77;3.47;;;15.00;99.90;;;;;;5030403;28;20179;-82
2023/10/08 07:16:17;;;;;;;7.27;4.10;;;15.10;99.90;;;;;;5014029;28;20225;-81
2023/10/08 07:18:50;;;;;;;6.10;3.90;;;15.10;99.90;;;;;;5014437;28;20171;-84
2023/10/08 07:21:15;;;;;;;7.67;4.20;;;15.10;99.90;;;;;;5013631;28;20634;-82
2023/10/08 07:23:56;;;;;;;6.37;3.97;;;15.20;99.90;;;;;;5015071;28;20257;-81
2023/10/08 07:26:39;;;;;;;6.20;3.57;;;15.20;99.90;;;;;;5013776;28;20182;-82
2023/10/08 07:29:09;;;;;;;8.03;4.10;;;15.20;99.90;;;;;;5015065;28;20289;-83
2023/10/08 07:31:37;;;;;;;5.30;3.77;;;15.20;99.90;;;;;;5014398;28;20194;-82
2023/10/08 07:34:15;;;;;;;7.07;3.67;;;15.20;99.90;;;;;;5030211;28;20241;-82
2023/10/08 07:36:43;;;;;;;6.50;3.93;;;15.20;99.90;;;;;;5014875;28;20174;-85
2023/10/08 07:39:22;;;;;;;8.37;3.67;;;15.20;99.90;;;;;;5014906;28;20183;-81
2023/10/08 07:41:48;;;;;;;6.07;4.00;;;15.20;99.90;;;;;;5014222;28;20198;-84
2023/10/08 07:44:13;;;;;;;7.73;3.90;;;15.20;99.90;;;;;;5014641;28;20175;-83
2023/10/08 07:46:39;;;;;;;8.00;4.10;;;15.20;99.90;;;;;;5014663;28;20265;-82
2023/10/08 07:49:05;;;;;;;8.07;3.90;;;15.20;99.90;;;;;;5013583;28;20212;-82
2023/10/08 07:51:30;;;;;;;5.77;3.83;;;15.20;99.90;;;;;;5013051;28;20282;-81
2023/10/08 07:53:56;;;;;;;6.00;3.47;;;15.20;99.90;;;;;;5014695;28;20706;-81
2023/10/08 07:56:23;;;;;;;5.13;3.97;;;15.30;99.90;;;;;;5014784;28;20171;-81
2023/10/08 07:58:49;;;;;;;8.63;3.47;;;15.30;99.90;;;;;;5013388;28;20179;-81
2023/10/08 08:01:15;;;;;;;6.40;3.70;;;15.40;99.90;;;;;;5014128;28;20190;-82
2023/10/08 08:03:41;;;;;;;7.53;3.57;;;15.40;99.90;;;;;;5014840;28;20179;-81
2023/10/08 08:06:08;;;;;;;5.23;3.83;;;15.50;99.90;;;;;;5013521;28;20179;-81
2023/10/08 08:08:35;;;;;;;6.97;3.87;;;15.50;99.90;;;;;;5013155;28;20202;-81
2023/10/08 08:11:07;;;;;;;5.77;3.77;;;15.60;99.90;;;;;;5012881;28;20175;-81
2023/10/08 08:13:34;;;;;;;6.23;4.40;;;15.60;99.90;;;;;;5014264;28;20242;-81
2023/10/08 08:16:19;;;;;;;5.40;3.43;;;15.70;99.90;;;;;;5013616;28;20175;-82
2023/10/08 08:18:51;;;;;;;6.57;4.30;;;15.70;99.90;;;;;;5012901;28;20663;-82
2023/10/08 08:21:19;;;;;;;7.07;3.90;;;15.70;99.90;;;;;;5013648;28;20254;-81
2023/10/08 08:23:47;;;;;;;7.53;4.43;;;15.70;99.90;;;;;;5013972;28;20191;-82
2023/10/08 08:26:26;;;;;;;5.30;4.00;;;15.70;99.90;;;;;;5013974;28;20663;-82
2023/10/08 08:29:01;;;;;;;5.93;3.97;;;15.70;99.90;;;;;;5014050;28;20205;-82
2023/10/08 08:31:31;;;;;;;7.70;3.77;;;15.70;99.90;;;;;;5012071;28;20198;-83
2023/10/08 08:34:10;;;;;;;7.03;4.10;;;15.80;99.90;;;;;;5013820;28;20190;-84
2023/10/08 08:36:39;;;;;;;6.17;3.80;;;15.80;99.90;;;;;;5014017;28;20159;-83
2023/10/08 08:39:08;;;;;;;6.70;3.97;;;15.80;99.90;;;;;;5012570;28;20182;-84
2023/10/08 08:41:37;;;;;;;7.17;3.87;;;15.80;99.90;;;;;;5012127;28;20256;-82
2023/10/08 08:44:06;;;;;;;7.57;4.20;;;15.80;99.90;;;;;;5012534;28;20190;-84
2023/10/08 08:46:39;;;;;;;7.50;4.10;;;15.80;99.90;;;;;;5013595;28;20187;-83
2023/10/08 08:49:07;;;;;;;7.27;4.40;;;15.80;99.90;;;;;;5013503;28;20261;-82
2023/10/08 08:51:35;;;;;;;8.50;4.40;;;15.80;99.90;;;;;;5012822;28;20199;-82
2023/10/08 08:54:07;;;;;;;9.30;4.20;;;15.80;99.90;;;;;;5013772;28;20183;-82
2023/10/08 08:56:38;;;;;;;6.27;4.20;;;15.80;99.90;;;;;;5013543;28;20175;-82
2023/10/08 08:59:11;;;;;;;8.67;4.23;;;15.80;99.90;;;;;;5012255;28;20262;-82
2023/10/08 09:01:38;;;;;;;8.90;4.67;;;15.80;99.90;;;;;;5011590;28;20253;-82
2023/10/08 09:04:05;;;;;;;11.20;4.53;;;15.80;99.90;;;;;;5013611;28;20203;-83
2023/10/08 09:06:37;;;;;;;8.07;4.77;;;15.80;99.90;;;;;;5013298;28;20182;-82
2023/10/08 09:09:22;;;;;;;6.30;4.33;;;15.90;99.90;;;;;;5012784;28;20201;-83
2023/10/08 09:11:57;;;;;;;6.63;4.40;;;15.90;99.90;;;;;;5011192;28;20191;-82
2023/10/08 09:14:27;;;;;;;6.73;4.33;;;15.90;99.90;;;;;;5012145;28;20186;-82
2023/10/08 09:16:56;;;;;;;8.17;4.40;;;15.90;99.90;;;;;;5011948;28;20175;-82
2023/10/08 09:19:24;;;;;;;3.47;2.60;;;15.90;99.90;;;;;;5012460;28;20186;-81
2023/10/08 09:22:03;;;;;;;3.53;1.80;;;15.80;99.90;;;;;;5011096;28;20206;-83
2023/10/08 09:24:33;;;;;;;2.27;1.93;;;15.50;99.90;;;;;;5011576;28;20174;-84
2023/10/08 09:27:00;;;;;;;4.00;2.43;;;15.00;99.90;;;;;;5011845;28;20187;-82
2023/10/08 09:29:26;;;;;;;1.93;1.57;;;14.80;99.90;;;;;;5012654;28;20226;-81
2023/10/08 09:31:59;;;;;;;2.63;1.57;;;14.60;99.90;;;;;;5012271;28;20260;-84
2023/10/08 09:34:30;;;;;;;1.87;1.10;;;14.40;99.90;;;;;;5011478;28;20211;-81
2023/10/08 09:36:57;;;;;;;2.43;1.70;;;14.10;99.90;;;;;;5011230;28;20179;-80
2023/10/08 09:39:25;;;;;;;1.93;1.40;;;14.00;99.90;;;;;;5011720;28;20179;-81
2023/10/08 09:41:53;;;;;;;2.57;0.87;;;13.90;99.90;;;;;;5012055;28;20202;-80
2023/10/08 09:44:20;;;;;;;2.10;1.23;;;13.80;99.90;;;;;;5011344;28;20187;-81
2023/10/08 09:46:51;;;;;;;1.03;0.93;;;13.70;99.90;;;;;;5013358;28;20185;-81
2023/10/08 09:49:21;;;;;;;2.00;1.77;;;13.70;99.90;;;;;;5011436;28;20241;-81
2023/10/08 09:51:47;;;;;;;2.57;1.57;;;13.60;99.90;;;;;;5012155;28;20264;-81
2023/10/08 09:54:24;;;;;;;0.63;0.63;;;13.60;99.90;;;;;;5012154;28;20179;-83
2023/10/08 09:56:50;;;;;;;2.13;1.00;;;13.70;99.90;;;;;;5011737;28;20281;-81
2023/10/08 09:59:18;;;;;;;1.43;0.70;;;13.70;99.90;;;;;;5011256;28;20183;-82
2023/10/08 10:01:44;;;;;;;0.90;0.60;;;13.70;99.90;;;;;;5012252;28;20191;-81
2023/10/08 10:04:10;;;;;;;0.60;0.50;;;13.70;99.90;;;;;;5013145;28;20651;-81
2023/10/08 10:06:37;;;;;;;1.00;0.47;;;13.70;99.90;;;;;;5013244;28;20202;-82
2023/10/08 10:09:15;;;;;;;0.40;0.40;;;13.70;99.90;;;;;;5012698;28;20207;-81
2023/10/08 10:11:47;;;;;;;1.07;0.50;;;13.60;99.90;;;;;;5012410;28;20277;-80
2023/10/08 10:14:13;;;;;;;4.87;4.40;;;13.60;99.90;;;;;;5013008;28;20178;-82
2023/10/08 10:16:41;;;;;;;2.57;2.37;;;13.60;99.90;;;;;;5011322;28;20179;-82
2023/10/08 10:19:17;;;;;;;1.53;0.40;;;13.50;99.90;;;;;;5011119;28;20181;-83
2023/10/08 10:21:43;;;;;;;0.97;0.60;;;13.50;99.90;;;;;;5012008;28;20197;-82
2023/10/08 10:24:27;;;;;;;1.20;0.90;;;13.50;99.90;;;;;;5012409;28;20179;-81
2023/10/08 10:27:14;;;;;;;0.43;0.43;;;13.30;99.90;;;;;;5013019;28;20181;-81
2023/10/08 10:29:43;;;;;;;2.67;2.43;;;13.40;99.90;;;;;;5012341;28;20219;-83
2023/10/08 10:32:11;;;;;;;10.20;9.37;;;13.30;99.90;;;;;;5011754;28;20197;-81
2023/10/08 10:34:39;;;;;;;1.10;1.00;;;13.40;99.90;;;;;;5011004;28;20711;-82
2023/10/08 10:37:20;;;;;;;2.17;1.60;;;13.50;99.90;;;;;;5011070;28;20178;-79
2023/10/08 10:39:59;;;;;;;2.40;1.20;;;13.60;99.90;;;;;;5011028;28;20175;-81
2023/10/08 10:42:28;;;;;;;0.90;0.90;;;13.60;99.90;;;;;;5011742;28;20203;-82
2023/10/08 10:44:55;;;;;;;1.30;1.20;;;13.60;99.90;;;;;;5010877;28;20253;-82
2023/10/08 10:52:31;;;;;;;0.30;0.20;;;13.50;99.90;;;;;;5013591;28;20261;-81
2023/10/08 10:57:41;;;;;;;2.67;1.90;;;13.70;99.90;;;;;;5015727;28;20217;-82
2023/10/08 11:02:56;;;;;;;1.73;0.70;;;13.70;99.90;;;;;;5015187;28;20238;-82
2023/10/08 11:05:28;;;;;;;1.50;0.83;;;13.70;99.90;;;;;;5015347;28;20551;-83
2023/10/08 11:08:04;;;;;;;1.47;1.30;;;13.70;99.90;;;;;;5016220;28;20175;-82
2023/10/08 11:10:31;;;;;;;0.50;0.50;;;13.70;99.90;;;;;;5014359;28;20167;-80
2023/10/08 11:13:00;;;;;;;1.63;0.90;;;13.60;99.90;;;;;;5014097;28;20214;-81
2023/10/08 11:15:37;;;;;;;1.20;1.10;;;13.50;99.90;;;;;;5014378;28;20171;-81
2023/10/08 11:18:08;;;;;;;2.07;1.30;;;13.70;99.90;;;;;;5015924;28;20179;-81
2023/10/08 11:20:39;;;;;;;2.23;1.20;;;14.00;99.90;;;;;;5012106;28;20186;-83
2023/10/08 11:23:17;;;;;;;1.63;0.87;;;14.20;99.90;;;;;;5013979;28;20197;-82
2023/10/08 11:25:53;;;;;;;3.63;3.13;;;14.60;99.90;;;;;;5017962;28;20269;-83
2023/10/08 11:28:19;;;;;;;2.27;1.20;;;14.60;99.90;;;;;;5014069;28;20289;-80
2023/10/08 11:30:46;;;;;;;0.50;0.40;;;14.60;99.90;;;;;;5015586;28;20784;-78
2023/10/08 11:33:15;;;;;;;2.50;0.90;;;14.80;99.90;;;;;;5015046;28;20199;-80
2023/10/08 11:36:06;;;;;;;0.77;0.53;;;15.00;99.90;;;;;;5015095;28;20171;-81
2023/10/08 11:38:41;;;;;;;0.57;0.57;;;15.20;53.30;;;;;;5013594;28;20190;-81
2023/10/08 11:41:20;;;;;;;2.53;0.90;;;15.10;1.00;;;;;;5014572;28;20182;-82
2023/10/08 11:43:48;;;;;;;1.40;0.70;;;15.20;99.90;;;;;;5014253;28;20187;-82
2023/10/08 11:46:18;;;;;;;1.30;0.80;;;15.30;24.20;;;;;;5014456;28;20714;-80
2023/10/08 11:48:46;;;;;;;3.17;2.13;;;15.30;52.70;;;;;;5014918;28;20272;-81
2023/10/08 11:51:13;;;;;;;1.27;0.60;;;15.30;1.00;;;;;;5014042;28;20640;-83
2023/10/08 11:53:38;;;;;;;2.20;2.03;;;15.10;1.00;;;;;;5013026;28;20195;-81
2023/10/08 11:56:12;;;;;;;1.03;0.60;;;14.90;1.00;;;;;;5014235;28;20198;-83
2023/10/08 11:58:39;;;;;;;3.00;2.67;;;14.70;99.90;;;;;;5014084;28;20183;-84
2023/10/08 12:01:05;;;;;;;1.27;1.13;;;14.50;97.80;;;;;;5013802;28;20226;-81
2023/10/08 12:03:31;;;;;;;0.63;0.40;;;14.50;99.90;;;;;;5013316;28;20198;-79
2023/10/08 12:06:00;;;;;;;0.53;0.53;;;14.50;99.90;;;;;;5014708;28;20172;-81
2023/10/08 12:08:27;;;;;;;0.37;0.30;;;14.40;99.90;;;;;;5014008;28;20203;-80
2023/10/08 12:10:54;;;;;;;2.60;2.40;;;14.40;99.90;;;;;;4991885;28;20187;-81
2023/10/08 12:13:28;;;;;;;1.97;0.90;;;14.40;99.90;;;;;;4997598;28;20207;-80
2023/10/08 12:16:12;;;;;;;0.40;0.40;;;14.40;99.90;;;;;;5009071;28;20183;-80
2023/10/08 12:18:42;;;;;;;0.87;0.40;;;14.40;99.90;;;;;;5011584;28;20273;-80
2023/10/08 12:21:11;;;;;;;0.47;0.40;;;14.40;99.90;;;;;;5013915;28;20247;-81
2023/10/08 12:23:38;;;;;;;0.40;0.40;;;14.40;99.90;;;;;;5004521;28;21066;-80
2023/10/08 12:26:07;;;;;;;1.53;0.60;;;14.40;99.90;;;;;;5006390;28;20560;-81
2023/10/08 12:28:34;;;;;;;0.90;0.50;;;14.30;99.90;;;;;;5012604;28;20209;-83
2023/10/08 12:31:00;;;;;;;0.40;0.40;;;14.40;99.90;;;;;;5012892;28;20671;-82
2023/10/08 12:33:28;;;;;;;0.77;0.40;;;14.40;99.90;;;;;;5013575;28;20681;-82
2023/10/08 12:35:55;;;;;;;0.67;0.50;;;14.50;99.90;;;;;;5013518;28;20183;-82
2023/10/08 12:38:27;;;;;;;1.07;0.50;;;14.40;65.80;;;;;;5012053;28;20603;-81
2023/10/08 12:40:53;;;;;;;0.80;0.30;;;14.30;99.90;;;;;;5005227;28;20175;-82
2023/10/08 12:43:26;;;;;;;2.60;0.60;;;14.40;99.90;;;;;;5013931;28;20207;-81
2023/10/08 12:45:53;;;;;;;0.60;0.47;;;14.40;99.90;;;;;;5005638;28;20233;-82
2023/10/08 12:48:24;;;;;;;1.57;0.50;;;14.50;99.90;;;;;;5004989;28;20215;-81
2023/10/08 12:50:53;;;;;;;1.10;0.33;;;14.60;94.00;;;;;;5004886;28;20191;-81
2023/10/08 12:53:23;;;;;;;1.47;0.50;;;14.50;99.90;;;;;;5077187;22;20226;-81
2023/10/08 12:55:53;;;;;;;1.53;0.50;;;14.60;99.90;;;;;;5015021;28;20201;-81
2023/10/08 12:58:23;;;;;;;0.73;0.33;;;14.60;99.90;;;;;;5033070;28;20182;-81
2023/10/08 13:00:56;;;;;;;1.13;0.40;;;14.60;35.60;;;;;;5014798;28;20521;-80
2023/10/08 13:03:23;;;;;;;1.40;0.50;;;14.60;88.30;;;;;;5024015;28;20220;-81
2023/10/08 13:05:52;;;;;;;1.33;0.40;;;14.60;99.90;;;;;;4993262;28;20225;-81
2023/10/08 13:08:19;;;;;;;1.33;0.43;;;14.60;99.90;;;;;;5013132;28;20202;-81
2023/10/08 13:10:46;;;;;;;3.00;0.90;;;14.60;99.90;;;;;;5012584;28;20175;-77
2023/10/08 13:13:12;;;;;;;1.13;0.60;;;14.70;88.90;;;;;;5008725;28;20671;-81
2023/10/08 13:15:38;;;;;;;1.47;0.60;;;14.70;99.90;;;;;;5012407;28;20196;-81
2023/10/08 13:18:05;;;;;;;4.47;0.90;;;14.70;99.90;;;;;;5011618;28;20220;-81
2023/10/08 13:20:34;;;;;;;1.37;0.60;;;14.70;99.90;;;;;;5012292;28;20174;-81
2023/10/08 13:23:04;;;;;;;0.70;0.63;;;14.50;99.90;;;;;;5002392;28;20195;-81
2023/10/08 13:25:39;;;;;;;0.80;0.50;;;14.50;99.90;;;;;;5003421;28;20550;-81
2023/10/08 13:28:04;;;;;;;0.67;0.60;;;14.50;99.90;;;;;;5013090;28;20225;-80
2023/10/08 13:30:30;;;;;;;0.63;0.63;;;14.50;99.90;;;;;;5011823;28;20639;-79
2023/10/08 13:32:55;;;;;;;1.53;0.70;;;14.50;99.90;;;;;;5012469;28;20195;-80
2023/10/08 13:35:21;;;;;;;0.80;0.67;;;14.60;99.90;;;;;;5011893;28;20206;-83
2023/10/08 13:37:48;;;;;;;1.37;0.90;;;14.60;99.90;;;;;;5004038;28;20659;-82
2023/10/08 13:40:15;;;;;;;0.93;0.40;;;14.60;99.90;;;;;;5013571;28;20178;-82
2023/10/08 13:42:42;;;;;;;1.30;0.60;;;14.60;99.90;;;;;;4995119;28;20225;-81
2023/10/08 13:45:09;;;;;;;1.27;0.70;;;14.50;99.90;;;;;;4995181;28;20210;-84
2023/10/08 13:47:34;;;;;;;1.30;0.67;;;14.60;99.90;;;;;;4995549;28;20234;-82
2023/10/08 13:50:02;;;;;;;2.47;0.70;;;14.60;99.90;;;;;;5012856;28;20203;-81
2023/10/08 13:52:29;;;;;;;1.30;0.70;;;14.70;99.90;;;;;;5012415;28;20222;-78
2023/10/08 13:54:55;;;;;;;1.43;0.77;;;14.60;99.90;;;;;;5013596;28;20230;-79
2023/10/08 13:57:21;;;;;;;1.10;0.80;;;14.60;99.90;;;;;;5013188;28;20171;-81
2023/10/08 13:59:47;;;;;;;1.30;0.80;;;14.60;99.90;;;;;;4995205;28;20183;-84
2023/10/08 14:02:14;;;;;;;0.90;0.70;;;14.60;99.90;;;;;;4995094;28;20206;-81
2023/10/08 14:04:43;;;;;;;1.20;0.60;;;14.60;99.90;;;;;;4995224;28;20179;-81
2023/10/08 14:07:11;;;;;;;1.33;0.70;;;14.60;99.90;;;;;;5012593;28;20190;-82
2023/10/08 14:09:37;;;;;;;0.70;0.70;;;14.50;99.90;;;;;;5013130;28;20295;-81
2023/10/08 14:12:06;;;;;;;1.57;0.77;;;14.50;99.90;;;;;;4994499;28;20194;-81
2023/10/08 14:14:33;;;;;;;2.00;1.00;;;14.50;99.90;;;;;;5012689;28;20171;-81